createdAt,value
2022-10-01T00:01:11.653Z,100531.19
2022-10-01T00:03:44.300Z,100536.63
2022-10-01T00:06:19.204Z,100531.00
2022-10-01T00:08:51.155Z,100527.25
2022-10-01T00:11:25.233Z,100531.00
2022-10-01T00:13:57.552Z,100514.50
2022-10-01T00:16:30.700Z,100509.28
2022-10-01T00:19:03.135Z,100507.22
2022-10-01T00:21:35.319Z,100515.34
2022-10-01T00:24:07.469Z,100507.41
2022-10-01T00:26:39.499Z,100512.84
2022-10-01T00:29:15.034Z,100509.91
2022-10-01T00:31:47.108Z,100494.03
2022-10-01T00:34:19.152Z,100484.44
2022-10-01T00:36:51.343Z,100485.28
2022-10-01T00:39:23.874Z,100483.59
2022-10-01T00:41:56.280Z,100477.34
2022-10-01T00:44:35.217Z,100472.13
2022-10-01T00:47:27.050Z,100476.50
2022-10-01T00:50:22.596Z,100463.13
2022-10-01T00:52:57.594Z,100469.41
2022-10-01T00:55:41.662Z,100456.88
2022-10-01T00:58:15.021Z,100455.22
2022-10-01T01:00:47.733Z,100447.09
2022-10-01T01:03:19.735Z,100445.16
2022-10-01T01:05:51.697Z,100443.28
2022-10-01T01:08:23.916Z,100454.16
2022-10-01T01:11:11.124Z,100445.16
2022-10-01T01:13:52.919Z,100446.00
2022-10-01T01:16:39.210Z,100447.69
2022-10-01T01:19:28.865Z,100430.16
2022-10-01T01:22:04.366Z,100432.63
2022-10-01T01:24:48.404Z,100422.00
2022-10-01T01:27:29.854Z,100426.16
2022-10-01T01:30:15.095Z,100423.44
2022-10-01T01:33:04.731Z,100416.34
2022-10-01T01:35:44.144Z,100405.50
2022-10-01T01:38:24.411Z,100400.06
2022-10-01T01:40:59.119Z,100406.56
2022-10-01T01:43:37.106Z,100393.19
2022-10-01T01:46:10.621Z,100402.16
2022-10-01T01:48:47.557Z,100389.63
2022-10-01T01:51:39.698Z,100385.25
2022-10-01T01:54:12.248Z,100375.44
2022-10-01T01:56:44.190Z,100368.13
2022-10-01T01:59:19.519Z,100361.84
2022-10-01T02:01:51.648Z,100366.69
2022-10-01T02:04:28.956Z,100354.38
2022-10-01T02:07:38.358Z,100341.22
2022-10-01T02:10:35.777Z,100339.16
2022-10-01T02:13:35.103Z,100342.94
2022-10-01T02:16:34.987Z,100333.34
2022-10-01T02:19:21.544Z,100325.59
2022-10-01T02:22:03.772Z,100330.41
2022-10-01T02:24:45.905Z,100315.81
2022-10-01T02:27:30.235Z,100317.44
2022-10-01T02:30:07.859Z,100311.00
2022-10-01T02:32:41.675Z,100297.44
2022-10-01T02:35:16.163Z,100301.84
2022-10-01T02:37:51.370Z,100303.50
2022-10-01T02:40:26.336Z,100295.38
2022-10-01T02:43:03.830Z,100293.50
2022-10-01T02:45:37.905Z,100282.41
2022-10-01T02:48:11.371Z,100283.22
2022-10-01T02:50:50.043Z,100280.31
2022-10-01T02:53:29.084Z,100272.81
2022-10-01T02:56:02.552Z,100272.81
2022-10-01T02:58:34.949Z,100262.78
2022-10-01T03:01:07.385Z,100271.31
2022-10-01T03:03:42.028Z,100259.63
2022-10-01T03:06:13.867Z,100263.19
2022-10-01T03:08:45.774Z,100254.81
2022-10-01T03:11:17.712Z,100255.63
2022-10-01T03:13:49.972Z,100243.53
2022-10-01T03:16:22.111Z,100250.84
2022-10-01T03:18:55.251Z,100238.94
2022-10-01T03:21:27.370Z,100253.09
2022-10-01T03:23:59.574Z,100242.25
2022-10-01T03:26:31.531Z,100235.56
2022-10-01T03:29:04.716Z,100242.66
2022-10-01T03:31:38.274Z,100239.72
2022-10-01T03:34:10.627Z,100227.81
2022-10-01T03:36:42.624Z,100221.34
2022-10-01T03:39:15.621Z,100229.50
2022-10-01T03:41:47.866Z,100239.91
2022-10-01T03:44:19.666Z,100227.16
2022-10-01T03:46:51.952Z,100225.06
2022-10-01T03:49:23.985Z,100222.16
2022-10-01T03:51:55.869Z,100229.22
2022-10-01T03:54:28.028Z,100218.34
2022-10-01T03:56:59.893Z,100218.34
2022-10-01T03:59:32.012Z,100219.44
2022-10-01T04:02:04.098Z,100221.06
2022-10-01T04:04:36.395Z,100213.38
2022-10-01T04:07:08.477Z,100215.06
2022-10-01T04:09:40.655Z,100208.78
2022-10-01T04:12:12.741Z,100202.53
2022-10-01T04:14:44.606Z,100202.53
2022-10-01T04:17:16.537Z,100191.88
2022-10-01T04:19:48.662Z,100175.81
2022-10-01T04:22:20.946Z,100178.31
2022-10-01T04:24:53.811Z,100176.88
2022-10-01T04:27:26.305Z,100174.56
2022-10-01T04:29:58.390Z,100166.88
2022-10-01T04:32:30.266Z,100163.34
2022-10-01T04:35:04.361Z,100150.41
2022-10-01T04:37:36.392Z,100148.38
2022-10-01T04:40:10.840Z,100139.22
2022-10-01T04:42:43.868Z,100128.81
2022-10-01T04:45:15.823Z,100128.59
2022-10-01T04:47:52.288Z,100117.31
2022-10-01T04:50:25.907Z,100103.38
2022-10-01T04:52:58.251Z,100093.41
2022-10-01T04:55:30.292Z,100088.88
2022-10-01T04:58:02.944Z,100086.78
2022-10-01T05:00:34.868Z,100085.34
2022-10-01T05:03:08.114Z,100076.38
2022-10-01T05:05:40.883Z,100076.59
2022-10-01T05:08:12.899Z,100068.44
2022-10-01T05:10:44.914Z,100050.13
2022-10-01T05:13:17.105Z,100044.09
2022-10-01T05:15:52.179Z,100048.28
2022-10-01T05:18:24.500Z,100048.53
2022-10-01T05:20:56.362Z,100056.03
2022-10-01T05:23:28.234Z,100036.44
2022-10-01T05:26:00.814Z,100041.03
2022-10-01T05:28:33.079Z,100032.50
2022-10-01T05:31:05.220Z,100034.41
2022-10-01T05:33:37.976Z,100036.47
2022-10-01T05:36:09.936Z,100038.56
2022-10-01T05:38:42.355Z,100029.00
2022-10-01T05:41:14.544Z,100030.88
2022-10-01T05:43:48.762Z,100032.53
2022-10-01T05:46:20.704Z,100021.91
2022-10-01T05:48:52.777Z,100019.41
2022-10-01T05:51:25.291Z,100030.50
2022-10-01T05:53:59.090Z,100028.63
2022-10-01T05:56:31.153Z,100026.09
2022-10-01T05:59:03.598Z,100022.34
2022-10-01T06:01:35.827Z,100019.22
2022-10-01T06:04:10.843Z,100026.53
2022-10-01T06:06:42.794Z,100024.88
2022-10-01T06:09:15.597Z,100008.63
2022-10-01T06:11:48.972Z,100007.78
2022-10-01T06:14:22.662Z,100008.63
2022-10-01T06:16:54.968Z,100000.91
2022-10-01T06:19:27.072Z,99996.53
2022-10-01T06:21:59.129Z,100003.22
2022-10-01T06:24:31.744Z,99998.03
2022-10-01T06:27:03.889Z,99988.22
2022-10-01T06:29:36.063Z,99987.41
2022-10-01T06:32:10.777Z,99987.00
2022-10-01T06:34:42.783Z,99981.81
2022-10-01T06:37:14.758Z,99983.25
2022-10-01T06:39:46.636Z,99970.75
2022-10-01T06:42:18.624Z,99970.75
2022-10-01T06:44:50.463Z,99965.94
2022-10-01T06:47:22.468Z,99960.75
2022-10-01T06:49:54.289Z,99954.50
2022-10-01T06:52:44.842Z,99957.19
2022-10-01T06:55:17.200Z,99961.78
2022-10-01T06:57:58.458Z,99953.66
2022-10-01T07:00:31.926Z,99950.13
2022-10-01T07:03:14.262Z,99949.06
2022-10-01T07:05:46.582Z,99945.31
2022-10-01T07:08:18.602Z,99941.56
2022-10-01T07:10:50.544Z,99941.34
2022-10-01T07:13:22.778Z,99948.22
2022-10-01T07:15:54.650Z,99942.78
2022-10-01T07:18:27.029Z,99944.88
2022-10-01T07:20:59.077Z,99942.81
2022-10-01T07:23:31.114Z,99939.72
2022-10-01T07:26:08.821Z,99943.47
2022-10-01T07:28:40.998Z,99934.13
2022-10-01T07:31:13.038Z,99934.13
2022-10-01T07:33:45.191Z,99933.91
2022-10-01T07:36:17.132Z,99930.81
2022-10-01T07:38:50.781Z,99924.97
2022-10-01T07:41:22.727Z,99923.31
2022-10-01T07:43:54.998Z,99924.16
2022-10-01T07:46:28.054Z,99924.16
2022-10-01T07:49:02.293Z,99916.66
2022-10-01T07:51:34.646Z,99902.47
2022-10-01T07:54:06.759Z,99906.25
2022-10-01T07:56:38.672Z,99899.78
2022-10-01T07:59:11.166Z,99905.81
2022-10-01T08:01:43.199Z,99894.97
2022-10-01T08:04:34.038Z,99889.94
2022-10-01T08:07:08.029Z,99890.38
2022-10-01T08:09:40.180Z,99888.69
2022-10-01T08:12:12.178Z,99889.53
2022-10-01T08:14:44.145Z,99892.25
2022-10-01T08:17:16.021Z,99891.81
2022-10-01T08:19:48.025Z,99892.44
2022-10-01T08:22:20.730Z,99879.94
2022-10-01T08:24:52.720Z,99885.34
2022-10-01T08:27:25.616Z,99890.38
2022-10-01T08:29:57.758Z,99880.31
2022-10-01T08:32:31.285Z,99877.41
2022-10-01T08:35:05.069Z,99879.06
2022-10-01T08:37:37.132Z,99885.72
2022-10-01T08:40:09.601Z,99876.53
2022-10-01T08:42:49.000Z,99872.78
2022-10-01T08:45:27.740Z,99866.91
2022-10-01T08:48:05.215Z,99866.47
2022-10-01T08:50:55.833Z,99865.22
2022-10-01T08:53:50.295Z,99872.88
2022-10-01T08:56:25.591Z,99869.97
2022-10-01T08:58:59.573Z,99865.38
2022-10-01T09:01:31.637Z,99852.88
2022-10-01T09:04:05.045Z,99861.38
2022-10-01T09:06:38.485Z,99873.72
2022-10-01T09:09:32.953Z,99866.22
2022-10-01T09:12:42.793Z,99870.59
2022-10-01T09:15:21.995Z,99859.75
2022-10-01T09:18:15.929Z,99863.50
2022-10-01T09:20:53.820Z,99871.63
2022-10-01T09:23:59.903Z,99864.91
2022-10-01T09:26:32.183Z,99871.78
2022-10-01T09:29:11.426Z,99872.19
2022-10-01T09:31:47.279Z,99872.56
2022-10-01T09:34:32.988Z,99880.25
2022-10-01T09:37:07.622Z,99868.38
2022-10-01T09:39:48.534Z,99875.00
2022-10-01T09:42:25.504Z,99874.56
2022-10-01T09:44:58.092Z,99879.09
2022-10-01T09:47:32.911Z,99875.50
2022-10-01T09:50:06.558Z,99875.25
2022-10-01T09:52:39.903Z,99869.41
2022-10-01T09:55:20.771Z,99871.44
2022-10-01T09:57:58.889Z,99875.34
2022-10-01T10:00:30.927Z,99888.88
2022-10-01T10:03:02.892Z,99888.78
2022-10-01T10:05:43.895Z,99883.94
2022-10-01T10:08:28.803Z,99883.19
2022-10-01T10:11:02.387Z,99889.16
2022-10-01T10:13:41.932Z,99887.19
2022-10-01T10:16:26.721Z,99888.78
2022-10-01T10:19:04.679Z,99885.88
2022-10-01T10:21:37.806Z,99887.63
2022-10-01T10:24:23.889Z,99885.78
2022-10-01T10:26:58.530Z,99894.44
2022-10-01T10:29:32.857Z,99895.41
2022-10-01T10:32:13.662Z,99897.19
2022-10-01T10:34:48.685Z,99910.94
2022-10-01T10:37:27.514Z,99915.91
2022-10-01T10:39:59.381Z,99911.19
2022-10-01T10:42:33.281Z,99922.00
2022-10-01T10:45:15.648Z,99924.41
2022-10-01T10:47:50.296Z,99934.34
2022-10-01T10:50:30.069Z,99926.25
2022-10-01T10:53:19.880Z,99921.50
2022-10-01T10:56:01.814Z,99916.94
2022-10-01T10:58:40.228Z,99917.63
2022-10-01T11:01:17.444Z,99917.16
2022-10-01T11:03:53.366Z,99915.06
2022-10-01T11:06:25.802Z,99920.84
2022-10-01T11:09:00.767Z,99921.09
2022-10-01T11:12:25.075Z,99919.19
2022-10-01T11:15:21.762Z,99924.13
2022-10-01T11:18:11.524Z,99926.22
2022-10-01T11:21:00.256Z,99926.59
2022-10-01T11:23:53.551Z,99915.84
2022-10-01T11:26:34.213Z,99918.22
2022-10-01T11:29:21.318Z,99924.63
2022-10-01T11:32:03.311Z,99932.00
2022-10-01T11:34:49.598Z,99929.38
2022-10-01T11:37:32.874Z,99940.19
2022-10-01T11:40:15.301Z,99939.03
2022-10-01T11:42:47.892Z,99944.75
2022-10-01T11:45:24.394Z,99934.41
2022-10-01T11:48:00.741Z,99940.44
2022-10-01T11:50:39.204Z,99936.41
2022-10-01T11:53:19.352Z,99935.91
2022-10-01T11:56:19.235Z,99929.38
2022-10-01T11:58:54.752Z,99932.78
2022-10-01T12:01:46.338Z,99934.91
2022-10-01T12:04:40.480Z,99929.91
2022-10-01T12:07:16.352Z,99935.50
2022-10-01T12:09:58.701Z,99927.31
2022-10-01T12:12:37.015Z,99925.03
2022-10-01T12:15:14.276Z,99931.06
2022-10-01T12:18:06.528Z,99927.81
2022-10-01T12:20:43.795Z,99925.19
2022-10-01T12:23:26.785Z,99931.13
2022-10-01T12:26:12.452Z,99915.84
2022-10-01T12:29:00.183Z,99927.06
2022-10-01T12:31:38.141Z,99924.06
2022-10-01T12:34:15.921Z,99925.72
2022-10-01T12:37:10.417Z,99935.03
2022-10-01T12:40:07.040Z,99932.91
2022-10-01T12:43:01.965Z,99941.53
2022-10-01T12:45:45.385Z,99939.56
2022-10-01T12:48:44.913Z,99933.88
2022-10-01T12:51:43.157Z,99951.72
2022-10-01T12:54:31.103Z,99937.66
2022-10-01T12:57:07.828Z,99951.66
2022-10-01T12:59:50.738Z,99962.91
2022-10-01T13:02:52.014Z,99965.66
2022-10-01T13:05:53.233Z,99972.25
2022-10-01T13:08:33.855Z,99972.22
2022-10-01T13:11:43.858Z,99985.63
2022-10-01T13:14:18.315Z,99979.16
2022-10-01T13:17:00.254Z,99994.75
2022-10-01T13:19:53.301Z,100017.94
2022-10-01T13:22:35.204Z,100033.13
2022-10-01T13:25:25.387Z,100043.47
2022-10-01T13:28:12.107Z,100055.94
2022-10-01T13:31:00.138Z,100051.97
2022-10-01T13:33:33.119Z,100060.09
2022-10-01T13:36:06.828Z,100061.94
2022-10-01T13:38:38.576Z,100069.34
2022-10-01T13:41:23.263Z,100066.06
2022-10-01T13:44:11.583Z,100080.72
2022-10-01T13:46:52.962Z,100082.31
2022-10-01T13:49:30.066Z,100082.84
2022-10-01T13:52:03.013Z,100085.50
2022-10-01T13:54:47.368Z,100078.06
2022-10-01T13:57:31.576Z,100078.53
2022-10-01T14:00:12.496Z,100070.91
2022-10-01T14:03:04.479Z,100078.06
2022-10-01T14:05:38.231Z,100077.09
2022-10-01T14:08:16.557Z,100075.41
2022-10-01T14:11:12.806Z,100076.63
2022-10-01T14:14:06.039Z,100076.56
2022-10-01T14:16:49.396Z,100077.06
2022-10-01T14:19:24.447Z,100079.25
2022-10-01T14:22:14.580Z,100091.94
2022-10-01T14:24:55.088Z,100094.47
2022-10-01T14:27:47.529Z,100099.69
2022-10-01T14:30:29.620Z,100104.22
2022-10-01T14:33:16.711Z,100097.50
2022-10-01T14:35:54.878Z,100112.50
2022-10-01T14:38:26.883Z,100108.31
2022-10-01T14:40:59.190Z,100111.16
2022-10-01T14:43:32.623Z,100107.38
2022-10-01T14:46:06.611Z,100105.25
2022-10-01T14:48:40.303Z,100108.81
2022-10-01T14:51:27.541Z,100114.47
2022-10-01T14:54:00.145Z,100109.41
2022-10-01T14:56:32.896Z,100121.13
2022-10-01T14:59:07.193Z,100129.06
2022-10-01T15:01:39.103Z,100135.31
2022-10-01T15:04:16.630Z,100148.72
2022-10-01T15:06:48.689Z,100137.16
2022-10-01T15:09:20.706Z,100131.44
2022-10-01T15:11:52.831Z,100142.94
2022-10-01T15:14:24.934Z,100146.03
2022-10-01T15:16:56.927Z,100144.75
2022-10-01T15:19:29.048Z,100152.22
2022-10-01T15:22:01.916Z,100150.25
2022-10-01T15:24:49.020Z,100151.22
2022-10-01T15:27:21.373Z,100164.13
2022-10-01T15:29:56.803Z,100169.56
2022-10-01T15:32:29.116Z,100174.56
2022-10-01T15:35:01.682Z,100171.63
2022-10-01T15:37:35.544Z,100167.00
2022-10-01T15:40:21.545Z,100169.28
2022-10-01T15:43:13.187Z,100179.47
2022-10-01T15:45:47.295Z,100177.94
2022-10-01T15:48:28.797Z,100177.25
2022-10-01T15:51:27.465Z,100177.38
2022-10-01T15:54:05.810Z,100173.38
2022-10-01T15:56:37.671Z,100182.97
2022-10-01T15:59:17.061Z,100193.28
2022-10-01T16:01:48.986Z,100198.72
2022-10-01T16:04:21.182Z,100212.34
2022-10-01T16:06:53.275Z,100203.56
2022-10-01T16:09:30.881Z,100204.59
2022-10-01T16:12:06.841Z,100213.63
2022-10-01T16:14:44.228Z,100220.72
2022-10-01T16:17:18.850Z,100220.72
2022-10-01T16:19:52.872Z,100227.00
2022-10-01T16:22:28.962Z,100232.31
2022-10-01T16:25:10.003Z,100232.75
2022-10-01T16:27:57.274Z,100238.06
2022-10-01T16:30:29.931Z,100252.97
2022-10-01T16:33:04.466Z,100256.97
2022-10-01T16:35:37.996Z,100254.09
2022-10-01T16:38:11.229Z,100266.66
2022-10-01T16:40:45.216Z,100270.91
2022-10-01T16:43:20.225Z,100279.06
2022-10-01T16:45:52.203Z,100280.13
2022-10-01T16:48:24.224Z,100284.50
2022-10-01T16:50:59.117Z,100286.59
2022-10-01T16:53:31.060Z,100289.59
2022-10-01T16:56:03.140Z,100293.97
2022-10-01T16:58:35.054Z,100297.13
2022-10-01T17:01:08.729Z,100309.06
2022-10-01T17:03:41.172Z,100313.66
2022-10-01T17:06:13.126Z,100317.47
2022-10-01T17:08:44.898Z,100323.34
2022-10-01T17:11:16.820Z,100328.78
2022-10-01T17:13:48.682Z,100330.94
2022-10-01T17:16:24.515Z,100334.69
2022-10-01T17:18:56.758Z,100343.91
2022-10-01T17:21:29.481Z,100346.84
2022-10-01T17:24:03.044Z,100354.44
2022-10-01T17:26:35.827Z,100352.97
2022-10-01T17:29:11.319Z,100361.38
2022-10-01T17:31:50.543Z,100365.38
2022-10-01T17:34:22.646Z,100369.13
2022-10-01T17:36:54.684Z,100380.03
2022-10-01T17:39:26.738Z,100376.72
2022-10-01T17:41:58.669Z,100384.25
2022-10-01T17:44:30.694Z,100395.34
2022-10-01T17:47:04.192Z,100394.53
2022-10-01T17:49:36.128Z,100413.59
2022-10-01T17:52:07.931Z,100410.25
2022-10-01T17:54:40.478Z,100415.69
2022-10-01T17:57:12.555Z,100420.66
2022-10-01T17:59:44.824Z,100428.81
2022-10-01T18:02:39.779Z,100436.56
2022-10-01T18:05:09.652Z,100445.78
2022-10-01T18:07:42.466Z,100450.38
2022-10-01T18:10:14.624Z,100453.31
2022-10-01T18:12:46.655Z,100457.09
2022-10-01T18:15:20.738Z,100456.47
2022-10-01T18:18:48.487Z,100460.03
2022-10-01T18:20:46.137Z,100464.25
2022-10-01T18:23:18.124Z,100469.72
2022-10-01T18:25:50.165Z,100476.78
2022-10-01T18:28:22.912Z,100472.19
2022-10-01T18:31:16.421Z,100487.47
2022-10-01T18:33:51.711Z,100483.31
2022-10-01T18:36:26.630Z,100485.78
2022-10-01T18:39:37.444Z,100486.25
2022-10-01T18:42:23.606Z,100488.34
2022-10-01T18:44:57.933Z,100498.81
2022-10-01T18:47:40.799Z,100495.47
2022-10-01T18:50:47.125Z,100506.34
2022-10-01T18:53:21.617Z,100510.38
2022-10-01T18:55:55.959Z,100506.41
2022-10-01T18:58:33.616Z,100511.03
2022-10-01T19:01:19.742Z,100522.34
2022-10-01T19:03:54.253Z,100530.09
2022-10-01T19:06:47.966Z,100531.97
2022-10-01T19:09:38.112Z,100546.84
2022-10-01T19:12:12.915Z,100548.53
2022-10-01T19:15:01.025Z,100544.97
2022-10-01T19:17:46.473Z,100546.22
2022-10-01T19:20:30.303Z,100550.22
2022-10-01T19:23:20.922Z,100550.84
2022-10-01T19:26:12.238Z,100566.97
2022-10-01T19:29:02.186Z,100565.06
2022-10-01T19:31:49.598Z,100563.16
2022-10-01T19:34:28.518Z,100570.09
2022-10-01T19:37:05.485Z,100574.09
2022-10-01T19:39:39.399Z,100577.44
2022-10-01T19:42:22.301Z,100581.66
2022-10-01T19:45:04.474Z,100579.34
2022-10-01T19:47:41.262Z,100581.66
2022-10-01T19:50:24.163Z,100579.97
2022-10-01T19:52:58.377Z,100586.69
2022-10-01T19:55:38.416Z,100601.31
2022-10-01T19:58:19.793Z,100601.31
2022-10-01T20:00:56.037Z,100615.13
2022-10-01T20:03:38.731Z,100600.09
2022-10-01T20:06:21.570Z,100601.13
2022-10-01T20:09:00.672Z,100605.91
2022-10-01T20:11:36.332Z,100615.94
2022-10-01T20:15:04.374Z,100626.41
2022-10-01T20:17:49.206Z,100624.75
2022-10-01T20:20:24.723Z,100629.34
2022-10-01T20:23:19.401Z,100633.31
2022-10-01T20:26:10.405Z,100636.03
2022-10-01T20:29:04.294Z,100642.50
2022-10-01T20:31:48.195Z,100643.16
2022-10-01T20:34:32.598Z,100655.25
2022-10-01T20:37:18.295Z,100659.03
2022-10-01T20:40:24.793Z,100660.09
2022-10-01T20:43:12.867Z,100662.78
2022-10-01T20:45:46.468Z,100663.19
2022-10-01T20:48:25.794Z,100667.00
2022-10-01T20:51:03.778Z,100672.19
2022-10-01T20:53:53.252Z,100669.06
2022-10-01T20:56:35.322Z,100676.56
2022-10-01T20:59:17.645Z,100674.09
2022-10-01T21:02:18.969Z,100683.28
2022-10-01T21:04:54.305Z,100687.88
2022-10-01T21:07:37.905Z,100682.84
2022-10-01T21:10:33.862Z,100690.16
2022-10-01T21:13:11.747Z,100684.94
2022-10-01T21:16:12.138Z,100690.38
2022-10-01T21:19:05.271Z,100691.41
2022-10-01T21:21:53.338Z,100704.38
2022-10-01T21:24:51.345Z,100702.69
2022-10-01T21:28:00.359Z,100709.16
2022-10-01T21:30:40.085Z,100721.69
2022-10-01T21:33:14.678Z,100720.03
2022-10-01T21:36:03.209Z,100727.13
2022-10-01T21:38:47.130Z,100735.28
2022-10-01T21:41:43.533Z,100739.69
2022-10-01T21:44:53.144Z,100743.63
2022-10-01T21:47:47.338Z,100759.31
2022-10-01T21:50:48.129Z,100756.13
2022-10-01T21:53:43.998Z,100767.00
2022-10-01T21:56:38.396Z,100767.44
2022-10-01T21:59:22.937Z,100770.13
2022-10-01T22:02:22.481Z,100770.13
2022-10-01T22:05:08.622Z,100768.88
2022-10-01T22:07:48.683Z,100776.44
2022-10-01T22:10:28.034Z,100772.25
2022-10-01T22:13:03.449Z,100778.31
2022-10-01T22:15:42.201Z,100783.34
2022-10-01T22:18:24.509Z,100791.50
2022-10-01T22:20:59.533Z,100793.38
2022-10-01T22:23:33.736Z,100801.28
2022-10-01T22:26:12.022Z,100812.81
2022-10-01T22:28:51.118Z,100813.84
2022-10-01T22:31:27.174Z,100825.34
2022-10-01T22:34:06.400Z,100808.00
2022-10-01T22:36:58.424Z,100822.38
2022-10-01T22:39:37.503Z,100815.00
2022-10-01T22:42:14.312Z,100819.78
2022-10-01T22:44:48.050Z,100815.56
2022-10-01T22:47:38.390Z,100811.56
2022-10-01T22:50:20.117Z,100811.50
2022-10-01T22:53:20.854Z,100810.44
2022-10-01T22:55:55.030Z,100807.28
2022-10-01T22:58:52.423Z,100803.75
2022-10-01T23:02:00.328Z,100808.75
2022-10-01T23:04:51.252Z,100813.53
2022-10-01T23:07:50.064Z,100818.97
2022-10-01T23:10:33.630Z,100825.44
2022-10-01T23:13:20.757Z,100826.66
2022-10-01T23:16:14.732Z,100819.13
2022-10-01T23:19:03.391Z,100826.00
2022-10-01T23:22:04.689Z,100821.00
2022-10-01T23:24:36.493Z,100821.19
2022-10-01T23:27:23.738Z,100821.78
2022-10-01T23:30:16.883Z,100820.09
2022-10-01T23:33:21.787Z,100829.06
2022-10-01T23:36:16.197Z,100828.22
2022-10-01T23:39:27.339Z,100832.38
2022-10-01T23:42:17.696Z,100829.84
2022-10-01T23:45:02.254Z,100837.81
2022-10-01T23:47:41.938Z,100841.53
2022-10-01T23:50:25.334Z,100849.03
2022-10-01T23:53:10.438Z,100851.13
2022-10-01T23:56:04.947Z,100848.41
2022-10-01T23:58:47.270Z,100851.13
